sensor_id;sensor_type;location;lat;lon;timestamp;P1;durP1;ratioP1;P2;durP2;ratioP2
42978;SDS011;28616;44.746;19.678;2023-08-24T00:00:11;35.75;;;17.73;;
42978;SDS011;28616;44.746;19.678;2023-08-24T00:02:38;26.35;;;18.48;;
42978;SDS011;28616;44.746;19.678;2023-08-24T00:05:04;31.52;;;19.92;;
42978;SDS011;28616;44.746;19.678;2023-08-24T00:07:30;29.75;;;19.25;;
42978;SDS011;28616;44.746;19.678;2023-08-24T00:09:59;25.63;;;18.45;;
42978;SDS011;28616;44.746;19.678;2023-08-24T00:12:25;31.02;;;19.63;;
42978;SDS011;28616;44.746;19.678;2023-08-24T00:14:51;26.23;;;19.42;;
42978;SDS011;28616;44.746;19.678;2023-08-24T00:17:18;30.42;;;20.15;;
42978;SDS011;28616;44.746;19.678;2023-08-24T00:19:44;32.00;;;19.77;;
42978;SDS011;28616;44.746;19.678;2023-08-24T00:22:11;31.65;;;20.35;;
42978;SDS011;28616;44.746;19.678;2023-08-24T00:24:38;35.28;;;20.75;;
42978;SDS011;28616;44.746;19.678;2023-08-24T00:27:04;28.60;;;18.60;;
42978;SDS011;28616;44.746;19.678;2023-08-24T00:29:30;31.70;;;19.63;;
42978;SDS011;28616;44.746;19.678;2023-08-24T00:31:56;28.83;;;20.60;;
42978;SDS011;28616;44.746;19.678;2023-08-24T00:34:22;27.20;;;18.63;;
42978;SDS011;28616;44.746;19.678;2023-08-24T00:36:48;24.60;;;19.40;;
42978;SDS011;28616;44.746;19.678;2023-08-24T00:39:15;27.65;;;19.27;;
42978;SDS011;28616;44.746;19.678;2023-08-24T00:41:41;24.40;;;18.70;;
42978;SDS011;28616;44.746;19.678;2023-08-24T00:44:07;28.80;;;19.13;;
42978;SDS011;28616;44.746;19.678;2023-08-24T00:46:34;28.95;;;18.58;;
42978;SDS011;28616;44.746;19.678;2023-08-24T00:49:00;25.50;;;18.73;;
42978;SDS011;28616;44.746;19.678;2023-08-24T00:51:28;29.52;;;18.73;;
42978;SDS011;28616;44.746;19.678;2023-08-24T00:53:53;28.42;;;19.55;;
42978;SDS011;28616;44.746;19.678;2023-08-24T00:56:19;26.98;;;19.42;;
42978;SDS011;28616;44.746;19.678;2023-08-24T00:58:49;30.02;;;20.27;;
42978;SDS011;28616;44.746;19.678;2023-08-24T01:01:19;29.35;;;19.60;;
42978;SDS011;28616;44.746;19.678;2023-08-24T01:03:45;27.83;;;18.13;;
42978;SDS011;28616;44.746;19.678;2023-08-24T01:06:11;24.77;;;18.23;;
42978;SDS011;28616;44.746;19.678;2023-08-24T01:08:37;26.65;;;17.88;;
42978;SDS011;28616;44.746;19.678;2023-08-24T01:13:38;26.65;;;19.58;;
42978;SDS011;28616;44.746;19.678;2023-08-24T01:16:27;24.92;;;18.00;;
42978;SDS011;28616;44.746;19.678;2023-08-24T01:18:55;26.05;;;19.35;;
42978;SDS011;28616;44.746;19.678;2023-08-24T01:21:22;24.88;;;18.73;;
42978;SDS011;28616;44.746;19.678;2023-08-24T01:26:48;25.33;;;17.65;;
42978;SDS011;28616;44.746;19.678;2023-08-24T01:29:14;30.60;;;19.45;;
42978;SDS011;28616;44.746;19.678;2023-08-24T01:31:44;26.27;;;18.60;;
42978;SDS011;28616;44.746;19.678;2023-08-24T01:34:17;27.60;;;19.00;;
42978;SDS011;28616;44.746;19.678;2023-08-24T01:36:43;24.67;;;18.23;;
42978;SDS011;28616;44.746;19.678;2023-08-24T01:39:12;34.78;;;20.10;;
42978;SDS011;28616;44.746;19.678;2023-08-24T01:41:46;24.75;;;18.17;;
42978;SDS011;28616;44.746;19.678;2023-08-24T01:46:45;24.05;;;16.92;;
42978;SDS011;28616;44.746;19.678;2023-08-24T01:49:15;29.65;;;17.80;;
42978;SDS011;28616;44.746;19.678;2023-08-24T01:51:42;24.98;;;17.50;;
42978;SDS011;28616;44.746;19.678;2023-08-24T01:54:09;25.02;;;18.15;;
42978;SDS011;28616;44.746;19.678;2023-08-24T01:56:36;28.25;;;18.52;;
42978;SDS011;28616;44.746;19.678;2023-08-24T01:59:02;25.75;;;18.08;;
42978;SDS011;28616;44.746;19.678;2023-08-24T02:01:29;29.50;;;18.02;;
42978;SDS011;28616;44.746;19.678;2023-08-24T02:03:55;22.05;;;17.13;;
42978;SDS011;28616;44.746;19.678;2023-08-24T02:06:25;23.50;;;17.83;;
42978;SDS011;28616;44.746;19.678;2023-08-24T02:08:52;24.92;;;17.50;;
42978;SDS011;28616;44.746;19.678;2023-08-24T02:11:18;25.92;;;17.85;;
42978;SDS011;28616;44.746;19.678;2023-08-24T02:13:45;24.80;;;18.25;;
42978;SDS011;28616;44.746;19.678;2023-08-24T02:16:11;21.67;;;16.67;;
42978;SDS011;28616;44.746;19.678;2023-08-24T02:18:47;22.92;;;16.17;;
42978;SDS011;28616;44.746;19.678;2023-08-24T02:21:14;23.13;;;15.48;;
42978;SDS011;28616;44.746;19.678;2023-08-24T02:23:41;25.15;;;16.08;;
42978;SDS011;28616;44.746;19.678;2023-08-24T02:26:07;24.58;;;16.48;;
42978;SDS011;28616;44.746;19.678;2023-08-24T02:28:36;19.73;;;15.55;;
42978;SDS011;28616;44.746;19.678;2023-08-24T02:31:05;22.15;;;15.18;;
42978;SDS011;28616;44.746;19.678;2023-08-24T02:33:32;23.23;;;16.83;;
42978;SDS011;28616;44.746;19.678;2023-08-24T02:35:58;22.17;;;15.85;;
42978;SDS011;28616;44.746;19.678;2023-08-24T02:38:25;18.17;;;15.10;;
42978;SDS011;28616;44.746;19.678;2023-08-24T02:40:59;28.52;;;16.40;;
42978;SDS011;28616;44.746;19.678;2023-08-24T02:43:29;22.30;;;15.18;;
42978;SDS011;28616;44.746;19.678;2023-08-24T02:46:00;21.48;;;16.05;;
42978;SDS011;28616;44.746;19.678;2023-08-24T02:49:00;21.10;;;15.13;;
42978;SDS011;28616;44.746;19.678;2023-08-24T02:51:26;20.52;;;15.18;;
42978;SDS011;28616;44.746;19.678;2023-08-24T02:53:52;22.20;;;15.15;;
42978;SDS011;28616;44.746;19.678;2023-08-24T02:56:18;22.70;;;15.50;;
42978;SDS011;28616;44.746;19.678;2023-08-24T02:58:43;20.17;;;14.70;;
42978;SDS011;28616;44.746;19.678;2023-08-24T03:01:09;22.60;;;14.45;;
42978;SDS011;28616;44.746;19.678;2023-08-24T03:03:36;28.42;;;14.93;;
42978;SDS011;28616;44.746;19.678;2023-08-24T03:06:02;27.83;;;15.32;;
42978;SDS011;28616;44.746;19.678;2023-08-24T03:08:31;19.10;;;14.82;;
42978;SDS011;28616;44.746;19.678;2023-08-24T03:10:58;21.70;;;14.65;;
42978;SDS011;28616;44.746;19.678;2023-08-24T03:13:25;24.20;;;15.85;;
42978;SDS011;28616;44.746;19.678;2023-08-24T03:15:51;23.45;;;15.93;;
42978;SDS011;28616;44.746;19.678;2023-08-24T03:18:18;23.40;;;15.23;;
42978;SDS011;28616;44.746;19.678;2023-08-24T03:20:45;20.25;;;14.80;;
42978;SDS011;28616;44.746;19.678;2023-08-24T03:23:12;22.02;;;15.40;;
42978;SDS011;28616;44.746;19.678;2023-08-24T03:25:39;22.35;;;15.07;;
42978;SDS011;28616;44.746;19.678;2023-08-24T03:28:06;25.65;;;15.82;;
42978;SDS011;28616;44.746;19.678;2023-08-24T03:30:34;23.90;;;15.27;;
42978;SDS011;28616;44.746;19.678;2023-08-24T03:33:02;23.27;;;14.48;;
42978;SDS011;28616;44.746;19.678;2023-08-24T03:35:30;26.38;;;16.08;;
42978;SDS011;28616;44.746;19.678;2023-08-24T03:37:56;24.42;;;15.20;;
42978;SDS011;28616;44.746;19.678;2023-08-24T03:40:22;28.40;;;15.90;;
42978;SDS011;28616;44.746;19.678;2023-08-24T03:42:48;23.70;;;14.90;;
42978;SDS011;28616;44.746;19.678;2023-08-24T03:45:13;22.85;;;14.73;;
42978;SDS011;28616;44.746;19.678;2023-08-24T03:47:39;26.35;;;14.93;;
42978;SDS011;28616;44.746;19.678;2023-08-24T03:50:06;21.92;;;13.38;;
42978;SDS011;28616;44.746;19.678;2023-08-24T03:52:32;22.98;;;14.88;;
42978;SDS011;28616;44.746;19.678;2023-08-24T03:54:58;24.27;;;14.95;;
42978;SDS011;28616;44.746;19.678;2023-08-24T03:57:24;22.73;;;14.20;;
42978;SDS011;28616;44.746;19.678;2023-08-24T03:59:50;21.52;;;15.52;;
42978;SDS011;28616;44.746;19.678;2023-08-24T04:02:15;22.70;;;14.57;;
42978;SDS011;28616;44.746;19.678;2023-08-24T04:04:41;23.48;;;14.80;;
42978;SDS011;28616;44.746;19.678;2023-08-24T04:07:07;21.23;;;13.82;;
42978;SDS011;28616;44.746;19.678;2023-08-24T04:09:33;23.00;;;14.70;;
42978;SDS011;28616;44.746;19.678;2023-08-24T04:11:59;20.55;;;13.82;;
42978;SDS011;28616;44.746;19.678;2023-08-24T04:14:26;22.83;;;14.40;;
42978;SDS011;28616;44.746;19.678;2023-08-24T04:16:52;19.33;;;14.55;;
42978;SDS011;28616;44.746;19.678;2023-08-24T04:19:18;21.77;;;13.65;;
42978;SDS011;28616;44.746;19.678;2023-08-24T04:21:44;23.55;;;14.27;;
42978;SDS011;28616;44.746;19.678;2023-08-24T04:24:10;21.55;;;14.65;;
42978;SDS011;28616;44.746;19.678;2023-08-24T04:26:36;19.90;;;13.65;;
42978;SDS011;28616;44.746;19.678;2023-08-24T04:29:01;24.85;;;12.98;;
42978;SDS011;28616;44.746;19.678;2023-08-24T04:31:27;21.63;;;13.05;;
42978;SDS011;28616;44.746;19.678;2023-08-24T04:33:54;20.40;;;13.05;;
42978;SDS011;28616;44.746;19.678;2023-08-24T04:36:20;22.73;;;14.02;;
42978;SDS011;28616;44.746;19.678;2023-08-24T04:38:46;24.77;;;13.10;;
42978;SDS011;28616;44.746;19.678;2023-08-24T04:41:12;23.02;;;13.55;;
42978;SDS011;28616;44.746;19.678;2023-08-24T04:43:38;23.17;;;13.48;;
42978;SDS011;28616;44.746;19.678;2023-08-24T04:48:57;24.85;;;13.48;;
42978;SDS011;28616;44.746;19.678;2023-08-24T04:51:23;23.98;;;13.95;;
42978;SDS011;28616;44.746;19.678;2023-08-24T04:53:50;20.20;;;12.95;;
42978;SDS011;28616;44.746;19.678;2023-08-24T04:56:16;18.63;;;13.40;;
42978;SDS011;28616;44.746;19.678;2023-08-24T04:58:56;22.48;;;13.02;;
42978;SDS011;28616;44.746;19.678;2023-08-24T05:01:28;24.77;;;12.63;;
42978;SDS011;28616;44.746;19.678;2023-08-24T05:03:57;18.20;;;12.90;;
42978;SDS011;28616;44.746;19.678;2023-08-24T05:06:24;24.45;;;11.55;;
42978;SDS011;28616;44.746;19.678;2023-08-24T05:08:50;24.02;;;12.30;;
42978;SDS011;28616;44.746;19.678;2023-08-24T05:20:25;27.23;;;13.30;;
42978;SDS011;28616;44.746;19.678;2023-08-24T06:00:21;16.77;;;10.95;;
42978;SDS011;28616;44.746;19.678;2023-08-24T06:02:57;22.67;;;10.82;;
42978;SDS011;28616;44.746;19.678;2023-08-24T06:05:46;15.88;;;10.93;;
42978;SDS011;28616;44.746;19.678;2023-08-24T06:11:15;20.50;;;10.32;;
42978;SDS011;28616;44.746;19.678;2023-08-24T06:16:32;33.33;;;17.98;;
42978;SDS011;28616;44.746;19.678;2023-08-24T06:19:19;32.33;;;16.27;;
42978;SDS011;28616;44.746;19.678;2023-08-24T06:21:44;19.88;;;14.50;;
42978;SDS011;28616;44.746;19.678;2023-08-24T06:26:58;16.15;;;9.55;;
42978;SDS011;28616;44.746;19.678;2023-08-24T06:35:35;17.27;;;10.73;;
42978;SDS011;28616;44.746;19.678;2023-08-24T06:49:44;20.17;;;9.38;;
42978;SDS011;28616;44.746;19.678;2023-08-24T06:52:29;15.88;;;8.88;;
42978;SDS011;28616;44.746;19.678;2023-08-24T06:58:14;15.73;;;10.07;;
42978;SDS011;28616;44.746;19.678;2023-08-24T07:07:10;15.43;;;9.25;;
42978;SDS011;28616;44.746;19.678;2023-08-24T07:09:58;18.90;;;10.27;;
42978;SDS011;28616;44.746;19.678;2023-08-24T08:43:42;10.55;;;5.60;;
42978;SDS011;28616;44.746;19.678;2023-08-24T08:46:30;13.00;;;5.93;;
42978;SDS011;28616;44.746;19.678;2023-08-24T09:01:02;10.70;;;5.38;;
42978;SDS011;28616;44.746;19.678;2023-08-24T09:03:55;9.40;;;5.10;;
42978;SDS011;28616;44.746;19.678;2023-08-24T09:09:39;9.48;;;5.20;;
42978;SDS011;28616;44.746;19.678;2023-08-24T09:12:05;7.30;;;4.68;;
42978;SDS011;28616;44.746;19.678;2023-08-24T09:14:45;9.00;;;5.03;;
42978;SDS011;28616;44.746;19.678;2023-08-24T09:26:11;10.60;;;5.32;;
42978;SDS011;28616;44.746;19.678;2023-08-24T09:31:43;6.63;;;4.75;;
42978;SDS011;28616;44.746;19.678;2023-08-24T09:34:10;8.80;;;5.18;;
42978;SDS011;28616;44.746;19.678;2023-08-24T10:03:48;13.35;;;3.97;;
42978;SDS011;28616;44.746;19.678;2023-08-24T10:19:12;5.78;;;4.25;;
42978;SDS011;28616;44.746;19.678;2023-08-24T10:31:03;9.73;;;4.75;;
42978;SDS011;28616;44.746;19.678;2023-08-24T10:55:29;6.32;;;4.28;;
42978;SDS011;28616;44.746;19.678;2023-08-24T12:00:13;5.38;;;2.90;;
42978;SDS011;28616;44.746;19.678;2023-08-24T12:23:43;6.07;;;3.00;;
42978;SDS011;28616;44.746;19.678;2023-08-24T12:32:49;6.22;;;2.72;;
42978;SDS011;28616;44.746;19.678;2023-08-24T12:35:27;4.40;;;2.95;;
42978;SDS011;28616;44.746;19.678;2023-08-24T12:47:28;6.72;;;3.42;;
42978;SDS011;28616;44.746;19.678;2023-08-24T13:08:18;6.75;;;3.13;;
42978;SDS011;28616;44.746;19.678;2023-08-24T13:20:06;6.53;;;3.42;;
42978;SDS011;28616;44.746;19.678;2023-08-24T14:02:22;10.40;;;3.20;;
42978;SDS011;28616;44.746;19.678;2023-08-24T14:13:40;6.00;;;2.95;;
42978;SDS011;28616;44.746;19.678;2023-08-24T14:25:58;4.50;;;3.08;;
42978;SDS011;28616;44.746;19.678;2023-08-24T18:53:36;19.52;;;7.90;;
